createdAt,value
2023-02-09T00:00:02.584Z,100.00
2023-02-09T00:02:43.267Z,100.00
2023-02-09T00:05:13.112Z,100.00
2023-02-09T00:07:41.526Z,100.00
2023-02-09T00:10:10.550Z,100.00
2023-02-09T00:12:56.052Z,100.00
2023-02-09T00:15:24.629Z,100.00
2023-02-09T00:17:54.590Z,100.00
2023-02-09T00:20:23.054Z,100.00
2023-02-09T00:22:51.402Z,100.00
2023-02-09T00:25:20.288Z,100.00
2023-02-09T00:27:48.695Z,100.00
2023-02-09T00:30:16.905Z,100.00
2023-02-09T00:32:47.072Z,100.00
2023-02-09T00:35:17.531Z,100.00
2023-02-09T00:37:46.359Z,100.00
2023-02-09T00:40:14.958Z,100.00
2023-02-09T00:42:43.122Z,100.00
2023-02-09T00:45:11.867Z,100.00
2023-02-09T00:47:40.136Z,100.00
2023-02-09T00:50:09.267Z,100.00
2023-02-09T00:52:38.830Z,100.00
2023-02-09T00:55:07.506Z,100.00
2023-02-09T00:57:36.232Z,100.00
2023-02-09T01:00:06.534Z,100.00
2023-02-09T01:02:34.873Z,100.00
2023-02-09T01:05:03.473Z,100.00
2023-02-09T01:07:32.009Z,100.00
2023-02-09T01:10:03.109Z,100.00
2023-02-09T01:12:32.086Z,100.00
2023-02-09T01:15:02.259Z,100.00
2023-02-09T01:17:30.760Z,100.00
2023-02-09T01:19:59.236Z,100.00
2023-02-09T01:22:27.546Z,100.00
2023-02-09T01:24:55.906Z,100.00
2023-02-09T01:27:25.618Z,100.00
2023-02-09T01:29:53.938Z,100.00
2023-02-09T01:32:22.081Z,100.00
2023-02-09T01:34:52.031Z,100.00
2023-02-09T01:37:20.546Z,100.00
2023-02-09T01:39:49.383Z,100.00
2023-02-09T01:42:20.617Z,100.00
2023-02-09T01:45:20.276Z,100.00
2023-02-09T01:47:51.679Z,100.00
2023-02-09T01:50:21.090Z,100.00
2023-02-09T01:52:50.892Z,100.00
2023-02-09T01:55:23.862Z,100.00
2023-02-09T01:57:56.000Z,100.00
2023-02-09T02:00:26.699Z,100.00
2023-02-09T02:02:58.672Z,100.00
2023-02-09T02:05:28.258Z,100.00
2023-02-09T02:08:02.525Z,100.00
2023-02-09T02:10:31.142Z,100.00
2023-02-09T02:12:59.540Z,100.00
2023-02-09T02:15:34.388Z,100.00
2023-02-09T02:18:24.600Z,100.00
2023-02-09T02:21:16.177Z,100.00
2023-02-09T02:23:53.864Z,100.00
2023-02-09T02:26:40.052Z,100.00
2023-02-09T02:29:26.091Z,100.00
2023-02-09T02:32:13.836Z,100.00
2023-02-09T02:34:48.473Z,100.00
2023-02-09T02:37:29.418Z,100.00
2023-02-09T02:40:11.581Z,100.00
2023-02-09T02:42:53.008Z,100.00
2023-02-09T02:45:34.081Z,100.00
2023-02-09T02:48:13.206Z,100.00
2023-02-09T02:50:47.820Z,100.00
2023-02-09T02:53:19.348Z,100.00
2023-02-09T02:55:50.328Z,100.00
2023-02-09T02:58:20.878Z,100.00
2023-02-09T03:00:52.793Z,100.00
2023-02-09T03:03:24.791Z,100.00
2023-02-09T03:05:54.262Z,100.00
2023-02-09T03:08:22.599Z,100.00
2023-02-09T03:10:51.012Z,100.00
2023-02-09T03:13:38.587Z,100.00
2023-02-09T03:16:29.273Z,100.00
2023-02-09T03:19:09.465Z,100.00
2023-02-09T03:21:47.808Z,100.00
2023-02-09T03:24:25.655Z,100.00
2023-02-09T03:26:58.913Z,100.00
2023-02-09T03:29:28.998Z,100.00
2023-02-09T03:31:58.244Z,100.00
2023-02-09T03:34:28.682Z,100.00
2023-02-09T03:36:58.682Z,100.00
2023-02-09T03:39:27.048Z,100.00
2023-02-09T03:41:55.443Z,100.00
2023-02-09T03:44:30.222Z,100.00
2023-02-09T03:47:00.516Z,100.00
2023-02-09T03:49:33.634Z,100.00
2023-02-09T03:52:02.088Z,100.00
2023-02-09T03:54:30.759Z,100.00
2023-02-09T03:57:01.153Z,100.00
2023-02-09T03:59:29.633Z,100.00
2023-02-09T04:01:59.709Z,100.00
2023-02-09T04:04:29.336Z,100.00
2023-02-09T04:06:58.150Z,100.00
2023-02-09T04:09:27.135Z,100.00
2023-02-09T04:11:56.069Z,100.00
2023-02-09T04:14:24.730Z,100.00
2023-02-09T04:16:53.090Z,100.00
2023-02-09T04:19:21.773Z,100.00
2023-02-09T04:21:52.804Z,100.00
2023-02-09T04:24:28.893Z,100.00
2023-02-09T04:26:57.266Z,100.00
2023-02-09T04:29:25.939Z,100.00
2023-02-09T04:31:54.211Z,100.00
2023-02-09T04:34:24.265Z,100.00
2023-02-09T04:36:53.992Z,100.00
2023-02-09T04:39:22.098Z,100.00
2023-02-09T04:41:50.430Z,100.00
2023-02-09T04:44:18.665Z,100.00
2023-02-09T04:46:47.159Z,100.00
2023-02-09T04:49:15.861Z,100.00
2023-02-09T04:51:44.641Z,100.00
2023-02-09T04:54:14.400Z,100.00
2023-02-09T04:56:42.762Z,100.00
2023-02-09T04:59:29.013Z,100.00
2023-02-09T05:01:57.336Z,100.00
2023-02-09T05:04:26.172Z,100.00
2023-02-09T05:06:54.468Z,100.00
2023-02-09T05:09:24.798Z,100.00
2023-02-09T05:11:52.982Z,100.00
2023-02-09T05:14:22.751Z,100.00
2023-02-09T05:16:51.202Z,100.00
2023-02-09T05:19:19.607Z,100.00
2023-02-09T05:21:48.135Z,100.00
2023-02-09T05:24:16.468Z,100.00
2023-02-09T05:26:46.239Z,100.00
2023-02-09T05:29:14.781Z,100.00
2023-02-09T05:31:43.260Z,100.00
2023-02-09T05:34:12.088Z,100.00
2023-02-09T05:36:40.443Z,100.00
2023-02-09T05:39:08.805Z,100.00
2023-02-09T05:41:54.440Z,100.00
2023-02-09T05:44:24.248Z,100.00
2023-02-09T05:46:52.592Z,100.00
2023-02-09T05:49:21.287Z,100.00
2023-02-09T05:51:49.698Z,100.00
2023-02-09T05:54:18.109Z,100.00
2023-02-09T05:56:46.547Z,100.00
2023-02-09T05:59:15.101Z,100.00
2023-02-09T06:01:44.929Z,100.00
2023-02-09T06:04:13.475Z,100.00
2023-02-09T06:06:41.859Z,100.00
2023-02-09T06:09:10.542Z,100.00
2023-02-09T06:11:38.886Z,100.00
2023-02-09T06:14:07.191Z,100.00
2023-02-09T06:16:35.396Z,100.00
2023-02-09T06:19:05.517Z,100.00
2023-02-09T06:21:33.772Z,100.00
2023-02-09T06:24:02.072Z,100.00
2023-02-09T06:26:30.380Z,100.00
2023-02-09T06:28:58.713Z,100.00
2023-02-09T06:31:27.236Z,100.00
2023-02-09T06:33:55.808Z,100.00
2023-02-09T06:36:25.450Z,100.00
2023-02-09T06:38:53.851Z,100.00
2023-02-09T06:41:22.282Z,100.00
2023-02-09T06:43:50.404Z,100.00
2023-02-09T06:46:18.795Z,100.00
2023-02-09T06:48:47.256Z,100.00
2023-02-09T06:51:17.880Z,100.00
2023-02-09T06:53:48.134Z,100.00
2023-02-09T06:56:16.646Z,100.00
2023-02-09T06:58:44.811Z,100.00
2023-02-09T07:01:16.027Z,100.00
2023-02-09T07:03:45.216Z,100.00
2023-02-09T07:06:16.387Z,100.00
2023-02-09T07:08:45.646Z,100.00
2023-02-09T07:11:17.488Z,100.00
2023-02-09T07:13:46.940Z,100.00
2023-02-09T07:16:15.646Z,100.00
2023-02-09T07:18:44.466Z,100.00
2023-02-09T07:21:15.782Z,100.00
2023-02-09T07:23:43.931Z,100.00
2023-02-09T07:26:16.879Z,100.00
2023-02-09T07:28:46.008Z,100.00
2023-02-09T07:31:16.129Z,100.00
2023-02-09T07:33:44.723Z,100.00
2023-02-09T07:36:15.569Z,100.00
2023-02-09T07:38:45.532Z,100.00
2023-02-09T07:41:18.291Z,100.00
2023-02-09T07:43:47.227Z,100.00
2023-02-09T07:46:17.842Z,100.00
2023-02-09T07:48:47.152Z,100.00
2023-02-09T07:51:16.273Z,100.00
2023-02-09T07:53:45.088Z,100.00
2023-02-09T07:56:13.554Z,100.00
2023-02-09T07:58:44.117Z,100.00
2023-02-09T08:01:13.999Z,100.00
2023-02-09T08:03:45.079Z,100.00
2023-02-09T08:06:21.799Z,100.00
2023-02-09T08:08:52.328Z,100.00
2023-02-09T08:11:24.484Z,100.00
2023-02-09T08:13:55.917Z,100.00
2023-02-09T08:16:29.935Z,100.00
2023-02-09T08:19:01.397Z,100.00
2023-02-09T08:21:30.165Z,100.00
2023-02-09T08:24:00.479Z,100.00
2023-02-09T08:26:29.200Z,100.00
2023-02-09T08:28:59.399Z,100.00
2023-02-09T08:31:27.842Z,100.00
2023-02-09T08:33:56.309Z,100.00
2023-02-09T08:36:25.121Z,100.00
2023-02-09T08:38:53.470Z,100.00
2023-02-09T08:41:24.036Z,100.00
2023-02-09T08:43:53.042Z,100.00
2023-02-09T08:46:22.966Z,100.00
2023-02-09T08:48:51.531Z,100.00
2023-02-09T08:51:20.259Z,100.00
2023-02-09T08:53:52.691Z,100.00
2023-02-09T08:56:22.504Z,100.00
2023-02-09T08:58:51.428Z,100.00
2023-02-09T09:01:19.902Z,100.00
2023-02-09T09:03:49.905Z,100.00
2023-02-09T09:06:18.612Z,100.00
2023-02-09T09:08:46.972Z,100.00
2023-02-09T09:11:16.169Z,100.00
2023-02-09T09:13:44.615Z,100.00
2023-02-09T09:16:17.380Z,100.00
2023-02-09T09:18:46.222Z,100.00
2023-02-09T09:21:17.631Z,100.00
2023-02-09T09:23:47.080Z,100.00
2023-02-09T09:26:16.591Z,100.00
2023-02-09T09:28:45.530Z,100.00
2023-02-09T09:31:15.776Z,100.00
2023-02-09T09:33:44.472Z,100.00
2023-02-09T09:36:14.707Z,100.00
2023-02-09T09:38:45.655Z,100.00
2023-02-09T09:41:24.741Z,100.00
2023-02-09T09:43:54.907Z,100.00
2023-02-09T09:46:32.533Z,100.00
2023-02-09T09:49:01.961Z,99.94
2023-02-09T09:51:38.205Z,93.15
2023-02-09T09:54:14.098Z,91.85
2023-02-09T09:56:42.676Z,93.29
2023-02-09T09:59:17.998Z,90.57
2023-02-09T10:01:50.547Z,89.60
2023-02-09T10:04:20.977Z,91.81
2023-02-09T10:06:57.688Z,94.78
2023-02-09T10:09:36.999Z,93.94
2023-02-09T10:12:16.762Z,94.02
2023-02-09T10:14:45.085Z,96.59
2023-02-09T10:17:13.423Z,96.88
2023-02-09T10:19:42.838Z,97.60
2023-02-09T10:22:14.065Z,98.54
2023-02-09T10:24:43.718Z,99.59
2023-02-09T10:27:16.477Z,100.00
2023-02-09T10:29:44.862Z,100.00
2023-02-09T10:32:18.016Z,100.00
2023-02-09T10:34:49.119Z,99.70
2023-02-09T10:37:21.810Z,98.05
2023-02-09T10:40:01.553Z,96.17
2023-02-09T10:42:32.710Z,95.66
2023-02-09T10:45:08.273Z,94.71
2023-02-09T10:47:36.604Z,93.93
2023-02-09T10:50:25.900Z,93.72
2023-02-09T10:53:00.248Z,93.13
2023-02-09T10:55:36.483Z,93.63
2023-02-09T10:58:16.246Z,93.85
2023-02-09T11:00:51.817Z,93.40
2023-02-09T11:03:22.763Z,93.41
2023-02-09T11:05:59.773Z,93.00
2023-02-09T11:08:39.703Z,93.34
2023-02-09T11:11:14.898Z,93.29
2023-02-09T11:13:43.617Z,92.97
2023-02-09T11:16:44.611Z,92.14
2023-02-09T11:19:32.165Z,92.11
2023-02-09T11:22:09.457Z,91.70
2023-02-09T11:24:59.904Z,91.55
2023-02-09T11:27:44.471Z,91.38
2023-02-09T11:30:33.224Z,92.53
2023-02-09T11:33:11.742Z,90.54
2023-02-09T11:35:51.967Z,88.08
2023-02-09T11:38:29.315Z,88.96
2023-02-09T11:40:59.731Z,90.22
2023-02-09T11:43:36.984Z,91.16
2023-02-09T11:46:13.226Z,91.96
2023-02-09T11:48:48.149Z,90.05
2023-02-09T11:51:20.723Z,80.57
2023-02-09T11:53:55.980Z,70.71
2023-02-09T11:56:26.552Z,71.78
2023-02-09T11:59:02.088Z,75.17
2023-02-09T12:01:42.337Z,80.07
2023-02-09T12:04:21.018Z,85.76
2023-02-09T12:06:52.347Z,89.09
2023-02-09T12:09:35.746Z,89.74
2023-02-09T12:12:15.193Z,92.17
2023-02-09T12:14:58.606Z,92.19
2023-02-09T12:17:36.204Z,91.87
2023-02-09T12:20:05.755Z,85.69
2023-02-09T12:22:58.833Z,70.03
2023-02-09T12:26:01.114Z,57.48
2023-02-09T12:28:42.499Z,54.90
2023-02-09T12:31:14.958Z,44.85
2023-02-09T12:34:22.667Z,57.40
2023-02-09T12:37:20.070Z,68.96
2023-02-09T12:40:19.423Z,67.80
2023-02-09T12:43:06.940Z,62.28
2023-02-09T12:45:37.974Z,71.14
2023-02-09T12:48:17.747Z,73.18
2023-02-09T12:50:50.572Z,83.35
2023-02-09T12:53:50.230Z,76.47
2023-02-09T12:56:28.625Z,74.28
2023-02-09T12:59:17.073Z,76.03
2023-02-09T13:02:11.210Z,85.10
2023-02-09T13:04:50.156Z,93.22
2023-02-09T13:07:28.291Z,93.69
2023-02-09T13:10:00.125Z,92.02
2023-02-09T13:12:37.318Z,88.15
2023-02-09T13:15:14.117Z,87.18
2023-02-09T13:17:50.520Z,89.08
2023-02-09T13:20:58.842Z,87.20
2023-02-09T13:23:44.620Z,87.98
2023-02-09T13:26:21.665Z,89.62
2023-02-09T13:28:50.442Z,91.24
2023-02-09T13:31:27.661Z,90.09
2023-02-09T13:34:01.891Z,89.33
2023-02-09T13:36:40.944Z,89.12
2023-02-09T13:39:10.183Z,88.39
2023-02-09T13:41:40.969Z,87.94
2023-02-09T13:44:23.512Z,85.52
2023-02-09T13:46:54.732Z,86.89
2023-02-09T13:49:24.729Z,85.55
2023-02-09T13:52:13.722Z,85.12
2023-02-09T13:54:43.498Z,86.15
2023-02-09T13:57:19.311Z,84.23
2023-02-09T13:59:48.910Z,84.72
2023-02-09T14:02:21.295Z,84.21
2023-02-09T14:04:55.958Z,84.04
2023-02-09T14:07:32.155Z,83.95
2023-02-09T14:10:04.256Z,84.36
2023-02-09T14:12:55.770Z,82.58
2023-02-09T14:15:46.991Z,83.12
2023-02-09T14:18:31.044Z,80.40
2023-02-09T14:21:01.399Z,83.80
2023-02-09T14:23:35.440Z,83.47
2023-02-09T14:26:06.495Z,84.34
2023-02-09T14:28:36.799Z,79.44
2023-02-09T14:31:07.374Z,84.30
2023-02-09T14:33:38.909Z,84.22
2023-02-09T14:36:23.483Z,82.91
2023-02-09T14:39:04.606Z,83.17
2023-02-09T14:41:34.690Z,82.97
2023-02-09T14:44:04.537Z,83.59
2023-02-09T14:46:49.342Z,82.16
2023-02-09T14:49:19.404Z,83.03
2023-02-09T14:51:49.440Z,83.82
2023-02-09T14:54:26.565Z,83.50
2023-02-09T14:56:57.992Z,84.46
2023-02-09T14:59:27.026Z,85.06
2023-02-09T15:01:56.889Z,85.98
2023-02-09T15:04:25.729Z,85.77
2023-02-09T15:07:02.970Z,86.01
2023-02-09T15:09:38.114Z,86.68
2023-02-09T15:12:08.505Z,86.81
2023-02-09T15:14:44.162Z,86.78
2023-02-09T15:17:17.711Z,87.14
2023-02-09T15:19:46.741Z,87.79
2023-02-09T15:22:16.760Z,88.05
2023-02-09T15:24:49.548Z,88.32
2023-02-09T15:27:26.679Z,88.51
2023-02-09T15:29:59.330Z,88.87
2023-02-09T15:32:29.110Z,88.90
2023-02-09T15:34:57.546Z,89.42
2023-02-09T15:37:28.546Z,88.92
2023-02-09T15:40:03.085Z,89.08
2023-02-09T15:42:57.380Z,89.37
2023-02-09T15:45:46.265Z,89.81
2023-02-09T15:48:16.165Z,89.93
2023-02-09T15:50:46.933Z,90.73
2023-02-09T15:53:19.398Z,90.55
2023-02-09T15:55:49.485Z,91.01
2023-02-09T15:58:20.840Z,91.23
2023-02-09T16:00:49.222Z,91.54
2023-02-09T16:03:20.194Z,91.46
2023-02-09T16:05:50.856Z,91.42
2023-02-09T16:08:23.302Z,91.57
2023-02-09T16:10:53.906Z,91.50
2023-02-09T16:13:22.276Z,91.34
2023-02-09T16:15:53.165Z,91.18
2023-02-09T16:18:21.684Z,91.60
2023-02-09T16:20:52.906Z,92.00
2023-02-09T16:23:23.905Z,91.97
2023-02-09T16:25:55.107Z,91.46
2023-02-09T16:28:23.620Z,92.07
2023-02-09T16:30:54.551Z,91.73
2023-02-09T16:33:25.272Z,91.64
2023-02-09T16:35:56.624Z,91.94
2023-02-09T16:38:26.820Z,92.01
2023-02-09T16:40:57.400Z,91.75
2023-02-09T16:43:25.930Z,91.73
2023-02-09T16:46:03.232Z,92.17
2023-02-09T16:48:35.088Z,91.86
2023-02-09T16:51:03.766Z,91.58
2023-02-09T16:53:34.622Z,92.23
2023-02-09T16:56:10.225Z,92.27
2023-02-09T16:58:39.683Z,92.39
2023-02-09T17:01:14.270Z,92.84
2023-02-09T17:03:44.397Z,93.06
2023-02-09T17:06:17.460Z,93.02
2023-02-09T17:08:46.208Z,93.24
2023-02-09T17:11:19.187Z,93.52
2023-02-09T17:13:48.460Z,93.40
2023-02-09T17:16:20.068Z,93.67
2023-02-09T17:18:51.598Z,93.33
2023-02-09T17:21:23.444Z,93.92
2023-02-09T17:23:51.951Z,93.45
2023-02-09T17:26:22.512Z,94.03
2023-02-09T17:28:51.222Z,94.42
2023-02-09T17:31:23.440Z,94.38
2023-02-09T17:33:54.104Z,94.09
2023-02-09T17:36:28.062Z,94.41
2023-02-09T17:38:58.735Z,94.40
2023-02-09T17:41:32.639Z,94.10
2023-02-09T17:44:22.445Z,94.04
2023-02-09T17:46:57.773Z,94.48
2023-02-09T17:49:26.552Z,94.22
2023-02-09T17:51:55.071Z,94.82
2023-02-09T17:54:23.516Z,95.19
2023-02-09T17:56:54.096Z,94.71
2023-02-09T17:59:22.648Z,95.09
2023-02-09T18:01:51.306Z,95.24
2023-02-09T18:04:27.434Z,94.97
2023-02-09T18:06:57.764Z,95.23
2023-02-09T18:09:26.257Z,95.71
2023-02-09T18:12:02.254Z,95.90
2023-02-09T18:14:32.602Z,95.60
2023-02-09T18:17:01.443Z,95.81
2023-02-09T18:19:30.006Z,95.83
2023-02-09T18:22:01.076Z,95.61
2023-02-09T18:24:30.741Z,95.54
2023-02-09T18:27:00.905Z,96.02
2023-02-09T18:29:30.384Z,95.96
2023-02-09T18:31:59.212Z,96.29
2023-02-09T18:34:28.495Z,96.45
2023-02-09T18:36:56.944Z,96.59
2023-02-09T18:39:25.342Z,97.00
2023-02-09T18:41:55.338Z,96.55
2023-02-09T18:44:29.498Z,96.25
2023-02-09T18:47:00.527Z,96.49
2023-02-09T18:49:29.466Z,96.43
2023-02-09T18:51:59.492Z,96.36
2023-02-09T18:54:29.050Z,96.79
2023-02-09T18:56:57.606Z,96.60
2023-02-09T18:59:30.665Z,96.57
2023-02-09T19:01:59.654Z,96.66
2023-02-09T19:04:29.125Z,96.64
2023-02-09T19:06:59.351Z,96.57
2023-02-09T19:09:28.805Z,96.49
2023-02-09T19:11:59.780Z,96.68
2023-02-09T19:14:40.734Z,97.29
2023-02-09T19:17:19.768Z,97.32
2023-02-09T19:19:56.252Z,97.39
2023-02-09T19:22:26.388Z,97.42
2023-02-09T19:24:56.938Z,97.36
2023-02-09T19:27:29.808Z,97.22
2023-02-09T19:30:01.241Z,97.10
2023-02-09T19:32:33.943Z,97.49
2023-02-09T19:35:05.611Z,97.42
2023-02-09T19:37:36.840Z,97.29
2023-02-09T19:40:18.358Z,97.74
2023-02-09T19:42:48.975Z,97.81
2023-02-09T19:45:19.111Z,97.71
2023-02-09T19:47:47.432Z,98.39
2023-02-09T19:50:16.863Z,98.20
2023-02-09T19:52:49.577Z,97.99
2023-02-09T19:55:18.453Z,97.49
2023-02-09T19:57:47.036Z,97.86
2023-02-09T20:00:19.256Z,97.71
2023-02-09T20:02:48.540Z,97.75
2023-02-09T20:05:18.868Z,97.48
2023-02-09T20:07:48.971Z,97.32
2023-02-09T20:10:17.708Z,97.29
2023-02-09T20:12:46.779Z,96.84
2023-02-09T20:15:15.197Z,97.03
2023-02-09T20:20:13.736Z,97.46
2023-02-09T20:22:42.200Z,97.21
2023-02-09T20:25:11.630Z,97.81
2023-02-09T20:27:41.090Z,97.21
2023-02-09T20:30:11.152Z,97.56
2023-02-09T20:32:39.668Z,97.35
2023-02-09T20:35:12.256Z,97.65
2023-02-09T20:37:40.628Z,97.89
2023-02-09T20:40:11.458Z,97.84
2023-02-09T20:42:57.826Z,97.85
2023-02-09T20:45:44.014Z,97.74
2023-02-09T20:48:14.071Z,96.86
2023-02-09T20:50:45.379Z,96.51
2023-02-09T20:53:14.318Z,95.87
2023-02-09T20:55:43.508Z,96.18
2023-02-09T20:58:13.709Z,96.37
2023-02-09T21:00:42.558Z,96.38
2023-02-09T21:03:11.304Z,96.02
2023-02-09T21:05:39.909Z,96.50
2023-02-09T21:08:09.905Z,96.51
2023-02-09T21:10:39.079Z,96.91
2023-02-09T21:13:10.688Z,97.17
2023-02-09T21:15:43.225Z,96.71
2023-02-09T21:18:11.665Z,96.16
2023-02-09T21:20:40.188Z,96.00
2023-02-09T21:23:09.935Z,95.85
2023-02-09T21:25:38.073Z,95.34
2023-02-09T21:28:07.150Z,95.84
2023-02-09T21:30:35.523Z,95.41
2023-02-09T21:33:03.928Z,95.55
2023-02-09T21:35:32.613Z,95.47
2023-02-09T21:38:01.014Z,94.83
2023-02-09T21:40:30.736Z,94.41
2023-02-09T21:42:59.290Z,94.43
2023-02-09T21:45:27.845Z,93.90
2023-02-09T21:47:56.103Z,94.43
2023-02-09T21:50:24.551Z,94.54
2023-02-09T21:52:54.757Z,95.03
2023-02-09T21:55:23.082Z,95.06
2023-02-09T21:57:52.755Z,94.68
2023-02-09T22:00:21.743Z,94.36
2023-02-09T22:02:53.398Z,94.54
2023-02-09T22:05:22.136Z,94.59
2023-02-09T22:07:50.986Z,94.54
2023-02-09T22:10:19.496Z,94.74
2023-02-09T22:12:48.110Z,94.89
2023-02-09T22:15:19.292Z,95.04
2023-02-09T22:17:48.427Z,94.85
2023-02-09T22:20:16.879Z,94.55
2023-02-09T22:22:46.280Z,94.45
2023-02-09T22:25:14.482Z,94.60
2023-02-09T22:27:43.348Z,94.62
2023-02-09T22:30:12.912Z,94.21
2023-02-09T22:32:43.383Z,94.29
2023-02-09T22:35:11.765Z,94.60
2023-02-09T22:37:40.226Z,94.32
2023-02-09T22:40:09.431Z,94.43
2023-02-09T22:42:37.786Z,93.45
2023-02-09T22:45:07.496Z,92.85
2023-02-09T22:47:36.236Z,92.13
2023-02-09T22:50:06.690Z,91.25
2023-02-09T22:52:35.278Z,90.55
2023-02-09T22:55:03.678Z,89.93
2023-02-09T22:57:32.297Z,89.25
2023-02-09T23:00:00.580Z,89.00
2023-02-09T23:02:29.326Z,88.98
2023-02-09T23:04:57.487Z,87.58
2023-02-09T23:07:27.666Z,87.47
2023-02-09T23:09:55.947Z,87.48
2023-02-09T23:12:24.424Z,86.69
2023-02-09T23:14:54.740Z,87.08
2023-02-09T23:17:23.179Z,86.57
2023-02-09T23:19:51.479Z,87.15
2023-02-09T23:22:20.477Z,87.04
2023-02-09T23:24:50.262Z,87.52
2023-02-09T23:27:19.464Z,87.59
2023-02-09T23:29:48.050Z,87.15
2023-02-09T23:32:17.072Z,86.94
2023-02-09T23:34:45.881Z,87.24
2023-02-09T23:37:19.171Z,87.23
2023-02-09T23:40:04.673Z,86.59
2023-02-09T23:42:33.507Z,86.74
2023-02-09T23:45:02.341Z,86.27
2023-02-09T23:47:30.538Z,86.65
2023-02-09T23:49:58.891Z,86.41
2023-02-09T23:52:27.537Z,86.78
2023-02-09T23:54:56.255Z,86.73
2023-02-09T23:57:26.464Z,86.66
2023-02-09T23:59:54.810Z,86.71
